sensor_id;sensor_type;location;lat;lon;timestamp;P1;durP1;ratioP1;P2;durP2;ratioP2
59970;SDS011;45825;45.434;9.116;2022-08-19T00:00:11;5.03;;;1.48;;
59970;SDS011;45825;45.434;9.116;2022-08-19T00:02:40;5.53;;;1.90;;
59970;SDS011;45825;45.434;9.116;2022-08-19T00:05:06;6.15;;;1.83;;
59970;SDS011;45825;45.434;9.116;2022-08-19T00:07:33;6.03;;;1.70;;
59970;SDS011;45825;45.434;9.116;2022-08-19T00:09:59;4.88;;;1.58;;
59970;SDS011;45825;45.434;9.116;2022-08-19T00:12:24;4.25;;;1.80;;
59970;SDS011;45825;45.434;9.116;2022-08-19T00:14:49;4.32;;;1.70;;
59970;SDS011;45825;45.434;9.116;2022-08-19T00:17:14;7.15;;;2.35;;
59970;SDS011;45825;45.434;9.116;2022-08-19T00:19:40;4.93;;;1.75;;
59970;SDS011;45825;45.434;9.116;2022-08-19T00:22:06;5.18;;;1.75;;
59970;SDS011;45825;45.434;9.116;2022-08-19T00:24:33;5.10;;;1.70;;
59970;SDS011;45825;45.434;9.116;2022-08-19T00:27:00;2.95;;;1.30;;
59970;SDS011;45825;45.434;9.116;2022-08-19T00:29:27;4.50;;;1.58;;
59970;SDS011;45825;45.434;9.116;2022-08-19T00:31:53;5.30;;;1.50;;
59970;SDS011;45825;45.434;9.116;2022-08-19T00:34:21;7.80;;;1.42;;
59970;SDS011;45825;45.434;9.116;2022-08-19T00:36:47;5.97;;;1.55;;
59970;SDS011;45825;45.434;9.116;2022-08-19T00:39:14;5.20;;;1.60;;
59970;SDS011;45825;45.434;9.116;2022-08-19T00:41:42;7.05;;;1.80;;
59970;SDS011;45825;45.434;9.116;2022-08-19T00:44:10;3.75;;;1.40;;
59970;SDS011;45825;45.434;9.116;2022-08-19T00:46:39;4.35;;;1.58;;
59970;SDS011;45825;45.434;9.116;2022-08-19T00:52:20;4.25;;;1.33;;
59970;SDS011;45825;45.434;9.116;2022-08-19T00:54:43;4.90;;;1.55;;
59970;SDS011;45825;45.434;9.116;2022-08-19T00:57:13;6.60;;;2.20;;
59970;SDS011;45825;45.434;9.116;2022-08-19T00:59:44;6.20;;;2.38;;
59970;SDS011;45825;45.434;9.116;2022-08-19T01:02:12;10.15;;;6.15;;
59970;SDS011;45825;45.434;9.116;2022-08-19T01:04:37;13.35;;;7.63;;
59970;SDS011;45825;45.434;9.116;2022-08-19T01:07:03;16.42;;;9.02;;
59970;SDS011;45825;45.434;9.116;2022-08-19T01:09:29;14.77;;;8.75;;
59970;SDS011;45825;45.434;9.116;2022-08-19T01:11:55;11.85;;;7.43;;
59970;SDS011;45825;45.434;9.116;2022-08-19T01:14:21;12.77;;;6.40;;
59970;SDS011;45825;45.434;9.116;2022-08-19T01:16:47;6.60;;;3.28;;
59970;SDS011;45825;45.434;9.116;2022-08-19T01:19:16;5.15;;;2.08;;
59970;SDS011;45825;45.434;9.116;2022-08-19T01:21:57;4.97;;;2.20;;
59970;SDS011;45825;45.434;9.116;2022-08-19T01:24:30;4.50;;;1.83;;
59970;SDS011;45825;45.434;9.116;2022-08-19T01:26:56;4.93;;;1.42;;
59970;SDS011;45825;45.434;9.116;2022-08-19T01:29:21;3.25;;;1.40;;
59970;SDS011;45825;45.434;9.116;2022-08-19T01:31:46;4.30;;;1.50;;
59970;SDS011;45825;45.434;9.116;2022-08-19T01:34:12;8.40;;;1.70;;
59970;SDS011;45825;45.434;9.116;2022-08-19T01:36:39;6.53;;;2.05;;
59970;SDS011;45825;45.434;9.116;2022-08-19T01:39:11;3.03;;;1.60;;
59970;SDS011;45825;45.434;9.116;2022-08-19T01:41:37;6.30;;;2.30;;
59970;SDS011;45825;45.434;9.116;2022-08-19T01:44:03;4.82;;;1.83;;
59970;SDS011;45825;45.434;9.116;2022-08-19T01:46:30;3.80;;;1.60;;
59970;SDS011;45825;45.434;9.116;2022-08-19T01:48:56;4.90;;;1.45;;
59970;SDS011;45825;45.434;9.116;2022-08-19T01:51:21;4.07;;;1.55;;
59970;SDS011;45825;45.434;9.116;2022-08-19T01:53:48;5.65;;;1.67;;
59970;SDS011;45825;45.434;9.116;2022-08-19T01:56:14;3.65;;;1.90;;
59970;SDS011;45825;45.434;9.116;2022-08-19T01:58:41;4.57;;;1.77;;
59970;SDS011;45825;45.434;9.116;2022-08-19T02:01:13;5.13;;;1.58;;
59970;SDS011;45825;45.434;9.116;2022-08-19T02:03:39;4.03;;;1.60;;
59970;SDS011;45825;45.434;9.116;2022-08-19T02:06:04;3.85;;;1.65;;
59970;SDS011;45825;45.434;9.116;2022-08-19T02:08:30;3.08;;;1.67;;
59970;SDS011;45825;45.434;9.116;2022-08-19T02:10:57;5.07;;;1.92;;
59970;SDS011;45825;45.434;9.116;2022-08-19T02:13:23;5.07;;;1.83;;
59970;SDS011;45825;45.434;9.116;2022-08-19T02:15:49;5.40;;;1.73;;
59970;SDS011;45825;45.434;9.116;2022-08-19T02:18:14;2.72;;;1.75;;
59970;SDS011;45825;45.434;9.116;2022-08-19T02:20:41;5.70;;;1.85;;
59970;SDS011;45825;45.434;9.116;2022-08-19T02:23:09;2.58;;;1.30;;
59970;SDS011;45825;45.434;9.116;2022-08-19T02:25:36;5.53;;;1.85;;
59970;SDS011;45825;45.434;9.116;2022-08-19T02:28:01;5.47;;;1.60;;
59970;SDS011;45825;45.434;9.116;2022-08-19T02:30:27;5.07;;;1.90;;
59970;SDS011;45825;45.434;9.116;2022-08-19T02:32:52;5.32;;;1.92;;
59970;SDS011;45825;45.434;9.116;2022-08-19T02:35:18;3.38;;;1.70;;
59970;SDS011;45825;45.434;9.116;2022-08-19T02:37:43;4.00;;;1.85;;
59970;SDS011;45825;45.434;9.116;2022-08-19T02:40:28;6.30;;;1.77;;
59970;SDS011;45825;45.434;9.116;2022-08-19T02:42:55;2.75;;;1.60;;
59970;SDS011;45825;45.434;9.116;2022-08-19T02:45:20;3.42;;;1.52;;
59970;SDS011;45825;45.434;9.116;2022-08-19T02:47:45;3.22;;;1.63;;
59970;SDS011;45825;45.434;9.116;2022-08-19T02:50:11;4.70;;;1.40;;
59970;SDS011;45825;45.434;9.116;2022-08-19T02:52:37;3.55;;;1.50;;
59970;SDS011;45825;45.434;9.116;2022-08-19T02:55:03;4.13;;;1.73;;
59970;SDS011;45825;45.434;9.116;2022-08-19T02:57:30;3.83;;;1.58;;
59970;SDS011;45825;45.434;9.116;2022-08-19T02:59:56;3.33;;;1.58;;
59970;SDS011;45825;45.434;9.116;2022-08-19T03:02:21;5.95;;;1.80;;
59970;SDS011;45825;45.434;9.116;2022-08-19T03:04:47;3.28;;;1.75;;
59970;SDS011;45825;45.434;9.116;2022-08-19T03:07:13;4.07;;;1.98;;
59970;SDS011;45825;45.434;9.116;2022-08-19T03:09:39;4.22;;;2.20;;
59970;SDS011;45825;45.434;9.116;2022-08-19T03:12:05;4.55;;;1.65;;
59970;SDS011;45825;45.434;9.116;2022-08-19T03:14:31;6.93;;;2.00;;
59970;SDS011;45825;45.434;9.116;2022-08-19T03:16:57;4.93;;;2.10;;
59970;SDS011;45825;45.434;9.116;2022-08-19T03:19:23;5.45;;;2.10;;
59970;SDS011;45825;45.434;9.116;2022-08-19T03:21:49;3.38;;;1.92;;
59970;SDS011;45825;45.434;9.116;2022-08-19T03:24:16;3.70;;;1.88;;
59970;SDS011;45825;45.434;9.116;2022-08-19T03:26:44;4.57;;;1.70;;
59970;SDS011;45825;45.434;9.116;2022-08-19T03:29:13;4.32;;;1.58;;
59970;SDS011;45825;45.434;9.116;2022-08-19T03:31:40;1.85;;;1.27;;
59970;SDS011;45825;45.434;9.116;2022-08-19T03:34:07;3.92;;;1.60;;
59970;SDS011;45825;45.434;9.116;2022-08-19T03:36:33;2.83;;;1.45;;
59970;SDS011;45825;45.434;9.116;2022-08-19T03:39:00;2.65;;;1.33;;
59970;SDS011;45825;45.434;9.116;2022-08-19T03:41:27;4.97;;;1.90;;
59970;SDS011;45825;45.434;9.116;2022-08-19T03:43:54;4.20;;;1.60;;
59970;SDS011;45825;45.434;9.116;2022-08-19T03:46:21;4.18;;;1.67;;
59970;SDS011;45825;45.434;9.116;2022-08-19T03:48:50;3.75;;;1.60;;
59970;SDS011;45825;45.434;9.116;2022-08-19T03:51:21;2.42;;;1.30;;
59970;SDS011;45825;45.434;9.116;2022-08-19T03:53:50;5.13;;;1.50;;
59970;SDS011;45825;45.434;9.116;2022-08-19T03:56:17;3.17;;;1.70;;
59970;SDS011;45825;45.434;9.116;2022-08-19T03:58:43;1.60;;;1.30;;
59970;SDS011;45825;45.434;9.116;2022-08-19T04:01:10;5.47;;;1.77;;
59970;SDS011;45825;45.434;9.116;2022-08-19T04:03:37;3.55;;;1.50;;
59970;SDS011;45825;45.434;9.116;2022-08-19T04:06:13;4.00;;;1.60;;
59970;SDS011;45825;45.434;9.116;2022-08-19T04:08:41;3.60;;;1.60;;
59970;SDS011;45825;45.434;9.116;2022-08-19T04:11:13;2.90;;;1.75;;
59970;SDS011;45825;45.434;9.116;2022-08-19T04:13:41;4.10;;;1.70;;
59970;SDS011;45825;45.434;9.116;2022-08-19T04:16:08;3.55;;;1.90;;
59970;SDS011;45825;45.434;9.116;2022-08-19T04:18:35;6.90;;;2.10;;
59970;SDS011;45825;45.434;9.116;2022-08-19T04:21:01;4.90;;;2.15;;
59970;SDS011;45825;45.434;9.116;2022-08-19T04:23:27;6.30;;;2.22;;
59970;SDS011;45825;45.434;9.116;2022-08-19T04:25:56;4.85;;;2.17;;
59970;SDS011;45825;45.434;9.116;2022-08-19T04:28:22;2.97;;;1.80;;
59970;SDS011;45825;45.434;9.116;2022-08-19T04:30:50;3.30;;;2.00;;
59970;SDS011;45825;45.434;9.116;2022-08-19T04:33:18;4.22;;;2.00;;
59970;SDS011;45825;45.434;9.116;2022-08-19T04:35:47;3.95;;;1.92;;
59970;SDS011;45825;45.434;9.116;2022-08-19T04:38:14;4.78;;;1.95;;
59970;SDS011;45825;45.434;9.116;2022-08-19T04:40:42;5.47;;;2.03;;
59970;SDS011;45825;45.434;9.116;2022-08-19T04:43:26;5.97;;;1.90;;
59970;SDS011;45825;45.434;9.116;2022-08-19T04:45:52;3.90;;;1.75;;
59970;SDS011;45825;45.434;9.116;2022-08-19T04:48:18;5.20;;;1.88;;
59970;SDS011;45825;45.434;9.116;2022-08-19T04:50:51;3.63;;;1.70;;
59970;SDS011;45825;45.434;9.116;2022-08-19T04:53:22;3.60;;;1.75;;
59970;SDS011;45825;45.434;9.116;2022-08-19T04:55:58;5.18;;;1.67;;
59970;SDS011;45825;45.434;9.116;2022-08-19T04:58:26;4.82;;;1.60;;
59970;SDS011;45825;45.434;9.116;2022-08-19T05:00:53;4.07;;;1.65;;
59970;SDS011;45825;45.434;9.116;2022-08-19T05:03:19;3.67;;;1.90;;
59970;SDS011;45825;45.434;9.116;2022-08-19T05:05:45;6.10;;;1.92;;
59970;SDS011;45825;45.434;9.116;2022-08-19T05:08:17;4.10;;;1.90;;
59970;SDS011;45825;45.434;9.116;2022-08-19T05:10:46;5.03;;;2.17;;
59970;SDS011;45825;45.434;9.116;2022-08-19T05:13:12;4.03;;;2.10;;
59970;SDS011;45825;45.434;9.116;2022-08-19T05:15:38;7.38;;;2.60;;
59970;SDS011;45825;45.434;9.116;2022-08-19T05:18:03;5.03;;;2.33;;
59970;SDS011;45825;45.434;9.116;2022-08-19T05:20:47;6.13;;;2.28;;
59970;SDS011;45825;45.434;9.116;2022-08-19T05:23:31;6.18;;;2.38;;
59970;SDS011;45825;45.434;9.116;2022-08-19T05:25:57;5.57;;;2.50;;
59970;SDS011;45825;45.434;9.116;2022-08-19T05:28:22;7.22;;;2.92;;
59970;SDS011;45825;45.434;9.116;2022-08-19T05:30:47;7.63;;;2.88;;
59970;SDS011;45825;45.434;9.116;2022-08-19T05:33:15;7.38;;;3.08;;
59970;SDS011;45825;45.434;9.116;2022-08-19T05:35:41;6.38;;;3.40;;
59970;SDS011;45825;45.434;9.116;2022-08-19T05:38:07;6.72;;;3.13;;
59970;SDS011;45825;45.434;9.116;2022-08-19T05:40:36;6.25;;;3.25;;
59970;SDS011;45825;45.434;9.116;2022-08-19T05:43:04;10.48;;;3.28;;
59970;SDS011;45825;45.434;9.116;2022-08-19T05:45:30;8.38;;;3.22;;
59970;SDS011;45825;45.434;9.116;2022-08-19T05:47:56;8.18;;;2.80;;
59970;SDS011;45825;45.434;9.116;2022-08-19T05:50:22;6.13;;;2.80;;
59970;SDS011;45825;45.434;9.116;2022-08-19T05:52:47;7.43;;;3.13;;
59970;SDS011;45825;45.434;9.116;2022-08-19T05:55:12;6.55;;;3.00;;
59970;SDS011;45825;45.434;9.116;2022-08-19T05:57:38;7.45;;;2.90;;
59970;SDS011;45825;45.434;9.116;2022-08-19T06:00:06;6.38;;;2.85;;
59970;SDS011;45825;45.434;9.116;2022-08-19T06:02:36;8.98;;;2.70;;
59970;SDS011;45825;45.434;9.116;2022-08-19T06:05:02;6.50;;;2.50;;
59970;SDS011;45825;45.434;9.116;2022-08-19T06:07:30;6.43;;;2.80;;
59970;SDS011;45825;45.434;9.116;2022-08-19T06:09:56;7.32;;;2.90;;
59970;SDS011;45825;45.434;9.116;2022-08-19T06:12:21;6.25;;;2.58;;
59970;SDS011;45825;45.434;9.116;2022-08-19T06:14:53;6.90;;;2.78;;
59970;SDS011;45825;45.434;9.116;2022-08-19T06:17:20;9.35;;;2.88;;
59970;SDS011;45825;45.434;9.116;2022-08-19T06:19:47;15.02;;;2.90;;
59970;SDS011;45825;45.434;9.116;2022-08-19T06:22:14;11.05;;;2.60;;
59970;SDS011;45825;45.434;9.116;2022-08-19T06:24:39;7.32;;;2.78;;
59970;SDS011;45825;45.434;9.116;2022-08-19T06:27:04;5.93;;;2.70;;
59970;SDS011;45825;45.434;9.116;2022-08-19T06:29:33;6.22;;;2.88;;
59970;SDS011;45825;45.434;9.116;2022-08-19T06:32:00;8.45;;;2.92;;
59970;SDS011;45825;45.434;9.116;2022-08-19T06:34:28;6.05;;;2.80;;
59970;SDS011;45825;45.434;9.116;2022-08-19T06:36:56;6.82;;;2.72;;
59970;SDS011;45825;45.434;9.116;2022-08-19T06:39:25;6.63;;;2.70;;
59970;SDS011;45825;45.434;9.116;2022-08-19T06:41:53;6.38;;;2.88;;
59970;SDS011;45825;45.434;9.116;2022-08-19T06:44:22;7.78;;;3.17;;
59970;SDS011;45825;45.434;9.116;2022-08-19T06:46:50;5.82;;;2.78;;
59970;SDS011;45825;45.434;9.116;2022-08-19T06:49:16;3.63;;;2.10;;
59970;SDS011;45825;45.434;9.116;2022-08-19T06:51:42;6.50;;;2.20;;
59970;SDS011;45825;45.434;9.116;2022-08-19T06:54:12;5.72;;;2.08;;
59970;SDS011;45825;45.434;9.116;2022-08-19T06:56:37;6.57;;;2.15;;
59970;SDS011;45825;45.434;9.116;2022-08-19T06:59:07;4.75;;;1.92;;
59970;SDS011;45825;45.434;9.116;2022-08-19T07:01:40;5.60;;;2.15;;
59970;SDS011;45825;45.434;9.116;2022-08-19T07:04:12;4.60;;;1.92;;
59970;SDS011;45825;45.434;9.116;2022-08-19T07:06:40;3.25;;;1.55;;
59970;SDS011;45825;45.434;9.116;2022-08-19T07:09:06;4.50;;;1.90;;
59970;SDS011;45825;45.434;9.116;2022-08-19T07:11:33;5.10;;;1.83;;
59970;SDS011;45825;45.434;9.116;2022-08-19T07:13:59;5.78;;;1.70;;
59970;SDS011;45825;45.434;9.116;2022-08-19T07:16:25;6.28;;;1.90;;
59970;SDS011;45825;45.434;9.116;2022-08-19T07:18:51;2.72;;;1.35;;
59970;SDS011;45825;45.434;9.116;2022-08-19T07:21:18;4.20;;;1.48;;
59970;SDS011;45825;45.434;9.116;2022-08-19T07:23:46;3.53;;;1.40;;
59970;SDS011;45825;45.434;9.116;2022-08-19T07:26:14;5.75;;;1.73;;
59970;SDS011;45825;45.434;9.116;2022-08-19T07:28:42;9.20;;;2.17;;
59970;SDS011;45825;45.434;9.116;2022-08-19T07:31:10;5.18;;;2.33;;
59970;SDS011;45825;45.434;9.116;2022-08-19T07:33:37;5.65;;;2.03;;
59970;SDS011;45825;45.434;9.116;2022-08-19T07:36:04;5.88;;;1.90;;
59970;SDS011;45825;45.434;9.116;2022-08-19T07:38:32;4.50;;;2.05;;
59970;SDS011;45825;45.434;9.116;2022-08-19T07:40:57;5.18;;;1.95;;
59970;SDS011;45825;45.434;9.116;2022-08-19T07:43:23;4.30;;;1.60;;
59970;SDS011;45825;45.434;9.116;2022-08-19T07:45:50;4.75;;;1.90;;
59970;SDS011;45825;45.434;9.116;2022-08-19T07:48:17;5.93;;;1.80;;
59970;SDS011;45825;45.434;9.116;2022-08-19T07:50:43;4.20;;;1.70;;
59970;SDS011;45825;45.434;9.116;2022-08-19T07:53:08;9.48;;;1.92;;
59970;SDS011;45825;45.434;9.116;2022-08-19T07:55:34;6.00;;;2.20;;
59970;SDS011;45825;45.434;9.116;2022-08-19T07:57:59;5.07;;;2.13;;
59970;SDS011;45825;45.434;9.116;2022-08-19T08:00:25;4.07;;;1.83;;
59970;SDS011;45825;45.434;9.116;2022-08-19T08:02:52;8.48;;;2.30;;
59970;SDS011;45825;45.434;9.116;2022-08-19T08:05:17;5.07;;;2.22;;
59970;SDS011;45825;45.434;9.116;2022-08-19T08:08:02;6.15;;;2.42;;
59970;SDS011;45825;45.434;9.116;2022-08-19T08:10:45;6.13;;;2.22;;
59970;SDS011;45825;45.434;9.116;2022-08-19T08:13:11;7.43;;;2.60;;
59970;SDS011;45825;45.434;9.116;2022-08-19T08:15:37;9.60;;;2.30;;
59970;SDS011;45825;45.434;9.116;2022-08-19T08:18:03;4.03;;;2.03;;
59970;SDS011;45825;45.434;9.116;2022-08-19T08:20:29;3.95;;;1.92;;
59970;SDS011;45825;45.434;9.116;2022-08-19T08:22:54;4.50;;;1.80;;
59970;SDS011;45825;45.434;9.116;2022-08-19T08:25:38;4.35;;;2.03;;
59970;SDS011;45825;45.434;9.116;2022-08-19T08:28:04;4.68;;;1.90;;
59970;SDS011;45825;45.434;9.116;2022-08-19T08:30:30;5.03;;;1.90;;
59970;SDS011;45825;45.434;9.116;2022-08-19T08:32:57;5.53;;;2.00;;
59970;SDS011;45825;45.434;9.116;2022-08-19T08:35:23;5.28;;;2.00;;
59970;SDS011;45825;45.434;9.116;2022-08-19T08:37:49;4.03;;;1.90;;
59970;SDS011;45825;45.434;9.116;2022-08-19T08:45:36;5.82;;;2.13;;
59970;SDS011;45825;45.434;9.116;2022-08-19T08:48:30;4.03;;;1.80;;
59970;SDS011;45825;45.434;9.116;2022-08-19T08:50:59;5.20;;;2.25;;
59970;SDS011;45825;45.434;9.116;2022-08-19T08:53:30;6.30;;;2.45;;
59970;SDS011;45825;45.434;9.116;2022-08-19T08:55:56;5.65;;;2.45;;
59970;SDS011;45825;45.434;9.116;2022-08-19T08:58:29;5.63;;;2.70;;
59970;SDS011;45825;45.434;9.116;2022-08-19T09:01:10;8.43;;;2.33;;
59970;SDS011;45825;45.434;9.116;2022-08-19T09:03:37;6.32;;;2.75;;
59970;SDS011;45825;45.434;9.116;2022-08-19T09:11:48;6.65;;;2.78;;
59970;SDS011;45825;45.434;9.116;2022-08-19T09:16:49;4.85;;;2.35;;
59970;SDS011;45825;45.434;9.116;2022-08-19T09:19:15;5.28;;;2.40;;
59970;SDS011;45825;45.434;9.116;2022-08-19T09:21:42;7.53;;;2.58;;
59970;SDS011;45825;45.434;9.116;2022-08-19T09:24:11;5.60;;;2.22;;
59970;SDS011;45825;45.434;9.116;2022-08-19T09:26:37;6.03;;;2.60;;
59970;SDS011;45825;45.434;9.116;2022-08-19T09:29:02;4.45;;;2.00;;
59970;SDS011;45825;45.434;9.116;2022-08-19T09:31:30;4.85;;;2.05;;
59970;SDS011;45825;45.434;9.116;2022-08-19T09:33:57;5.18;;;2.03;;
59970;SDS011;45825;45.434;9.116;2022-08-19T09:36:23;3.45;;;1.50;;
59970;SDS011;45825;45.434;9.116;2022-08-19T09:38:51;4.20;;;1.50;;
59970;SDS011;45825;45.434;9.116;2022-08-19T09:41:18;3.65;;;1.63;;
59970;SDS011;45825;45.434;9.116;2022-08-19T09:43:45;4.65;;;1.70;;
59970;SDS011;45825;45.434;9.116;2022-08-19T09:46:12;5.20;;;1.48;;
59970;SDS011;45825;45.434;9.116;2022-08-19T09:48:39;5.63;;;1.70;;
59970;SDS011;45825;45.434;9.116;2022-08-19T09:51:06;4.07;;;1.20;;
59970;SDS011;45825;45.434;9.116;2022-08-19T09:53:34;5.28;;;1.48;;
59970;SDS011;45825;45.434;9.116;2022-08-19T09:56:01;4.38;;;1.10;;
59970;SDS011;45825;45.434;9.116;2022-08-19T09:58:27;3.15;;;1.15;;
59970;SDS011;45825;45.434;9.116;2022-08-19T10:00:54;2.40;;;1.17;;
59970;SDS011;45825;45.434;9.116;2022-08-19T10:03:21;3.33;;;1.27;;
59970;SDS011;45825;45.434;9.116;2022-08-19T10:05:46;2.72;;;1.30;;
59970;SDS011;45825;45.434;9.116;2022-08-19T10:08:21;4.43;;;1.20;;
59970;SDS011;45825;45.434;9.116;2022-08-19T10:10:50;2.75;;;1.10;;
59970;SDS011;45825;45.434;9.116;2022-08-19T10:13:17;4.25;;;1.00;;
59970;SDS011;45825;45.434;9.116;2022-08-19T10:15:48;6.75;;;1.30;;
59970;SDS011;45825;45.434;9.116;2022-08-19T10:18:18;4.95;;;0.95;;
59970;SDS011;45825;45.434;9.116;2022-08-19T10:20:46;2.10;;;0.90;;
59970;SDS011;45825;45.434;9.116;2022-08-19T10:23:13;5.20;;;1.00;;
59970;SDS011;45825;45.434;9.116;2022-08-19T10:25:40;3.65;;;1.00;;
59970;SDS011;45825;45.434;9.116;2022-08-19T10:28:06;3.92;;;1.00;;
59970;SDS011;45825;45.434;9.116;2022-08-19T10:30:32;2.58;;;0.98;;
59970;SDS011;45825;45.434;9.116;2022-08-19T10:32:58;2.03;;;0.90;;
59970;SDS011;45825;45.434;9.116;2022-08-19T10:35:24;1.45;;;0.82;;
59970;SDS011;45825;45.434;9.116;2022-08-19T10:37:52;2.33;;;0.70;;
59970;SDS011;45825;45.434;9.116;2022-08-19T10:40:17;7.70;;;0.73;;
59970;SDS011;45825;45.434;9.116;2022-08-19T10:42:43;4.05;;;0.80;;
59970;SDS011;45825;45.434;9.116;2022-08-19T10:45:09;2.55;;;0.70;;
59970;SDS011;45825;45.434;9.116;2022-08-19T10:47:35;1.40;;;0.60;;
59970;SDS011;45825;45.434;9.116;2022-08-19T10:50:00;1.25;;;0.60;;
59970;SDS011;45825;45.434;9.116;2022-08-19T10:52:45;2.95;;;0.63;;
59970;SDS011;45825;45.434;9.116;2022-08-19T10:55:12;3.03;;;1.05;;
59970;SDS011;45825;45.434;9.116;2022-08-19T10:57:56;2.35;;;0.80;;
59970;SDS011;45825;45.434;9.116;2022-08-19T11:00:22;4.35;;;0.90;;
59970;SDS011;45825;45.434;9.116;2022-08-19T11:02:49;2.03;;;0.90;;
59970;SDS011;45825;45.434;9.116;2022-08-19T11:05:15;1.65;;;0.70;;
59970;SDS011;45825;45.434;9.116;2022-08-19T11:07:42;3.17;;;0.98;;
59970;SDS011;45825;45.434;9.116;2022-08-19T11:10:09;3.92;;;0.80;;
59970;SDS011;45825;45.434;9.116;2022-08-19T11:12:37;3.47;;;1.00;;
59970;SDS011;45825;45.434;9.116;2022-08-19T11:15:04;3.00;;;0.80;;
59970;SDS011;45825;45.434;9.116;2022-08-19T11:17:33;2.05;;;0.80;;
59970;SDS011;45825;45.434;9.116;2022-08-19T11:19:59;1.17;;;0.70;;
59970;SDS011;45825;45.434;9.116;2022-08-19T11:22:28;1.60;;;0.80;;
59970;SDS011;45825;45.434;9.116;2022-08-19T11:24:53;1.73;;;0.82;;
59970;SDS011;45825;45.434;9.116;2022-08-19T11:27:20;1.88;;;0.80;;
59970;SDS011;45825;45.434;9.116;2022-08-19T11:29:45;3.60;;;0.98;;
59970;SDS011;45825;45.434;9.116;2022-08-19T11:32:10;2.60;;;0.80;;
59970;SDS011;45825;45.434;9.116;2022-08-19T11:34:37;4.18;;;1.08;;
59970;SDS011;45825;45.434;9.116;2022-08-19T11:37:03;2.63;;;1.00;;
59970;SDS011;45825;45.434;9.116;2022-08-19T11:39:29;1.90;;;0.88;;
59970;SDS011;45825;45.434;9.116;2022-08-19T11:41:59;1.77;;;0.90;;
59970;SDS011;45825;45.434;9.116;2022-08-19T11:44:26;3.33;;;1.20;;
59970;SDS011;45825;45.434;9.116;2022-08-19T11:46:55;3.42;;;1.10;;
59970;SDS011;45825;45.434;9.116;2022-08-19T11:49:21;2.25;;;1.10;;
59970;SDS011;45825;45.434;9.116;2022-08-19T11:51:46;1.98;;;0.90;;
59970;SDS011;45825;45.434;9.116;2022-08-19T11:54:14;1.48;;;1.05;;
59970;SDS011;45825;45.434;9.116;2022-08-19T11:56:41;4.25;;;1.10;;
59970;SDS011;45825;45.434;9.116;2022-08-19T11:59:07;4.25;;;1.20;;
59970;SDS011;45825;45.434;9.116;2022-08-19T12:01:33;1.85;;;0.93;;
59970;SDS011;45825;45.434;9.116;2022-08-19T12:03:59;2.75;;;0.80;;
59970;SDS011;45825;45.434;9.116;2022-08-19T12:06:28;2.42;;;1.00;;
59970;SDS011;45825;45.434;9.116;2022-08-19T12:08:57;2.92;;;0.98;;
59970;SDS011;45825;45.434;9.116;2022-08-19T12:11:23;6.13;;;1.17;;
59970;SDS011;45825;45.434;9.116;2022-08-19T12:13:49;3.22;;;1.00;;
59970;SDS011;45825;45.434;9.116;2022-08-19T12:16:16;1.30;;;0.88;;
59970;SDS011;45825;45.434;9.116;2022-08-19T12:18:47;2.22;;;0.90;;
59970;SDS011;45825;45.434;9.116;2022-08-19T12:21:13;2.28;;;0.93;;
59970;SDS011;45825;45.434;9.116;2022-08-19T12:23:40;5.13;;;1.17;;
59970;SDS011;45825;45.434;9.116;2022-08-19T12:26:06;4.90;;;1.35;;
59970;SDS011;45825;45.434;9.116;2022-08-19T12:28:34;2.95;;;1.17;;
59970;SDS011;45825;45.434;9.116;2022-08-19T12:30:59;4.18;;;1.42;;
59970;SDS011;45825;45.434;9.116;2022-08-19T12:33:24;2.15;;;1.00;;
59970;SDS011;45825;45.434;9.116;2022-08-19T12:35:52;2.47;;;1.08;;
59970;SDS011;45825;45.434;9.116;2022-08-19T12:38:18;3.40;;;1.10;;
59970;SDS011;45825;45.434;9.116;2022-08-19T12:40:47;3.33;;;1.20;;
59970;SDS011;45825;45.434;9.116;2022-08-19T12:43:13;6.65;;;1.30;;
59970;SDS011;45825;45.434;9.116;2022-08-19T12:45:40;2.80;;;1.30;;
59970;SDS011;45825;45.434;9.116;2022-08-19T12:48:07;4.90;;;1.15;;
59970;SDS011;45825;45.434;9.116;2022-08-19T12:50:33;3.67;;;1.10;;
59970;SDS011;45825;45.434;9.116;2022-08-19T12:52:58;1.98;;;1.30;;
59970;SDS011;45825;45.434;9.116;2022-08-19T12:55:24;2.47;;;1.20;;
59970;SDS011;45825;45.434;9.116;2022-08-19T12:57:50;3.58;;;1.10;;
59970;SDS011;45825;45.434;9.116;2022-08-19T13:00:16;3.92;;;1.20;;
59970;SDS011;45825;45.434;9.116;2022-08-19T13:02:46;2.33;;;1.15;;
59970;SDS011;45825;45.434;9.116;2022-08-19T13:05:16;2.30;;;1.20;;
59970;SDS011;45825;45.434;9.116;2022-08-19T13:07:45;3.65;;;1.38;;
59970;SDS011;45825;45.434;9.116;2022-08-19T13:10:11;2.15;;;1.20;;
59970;SDS011;45825;45.434;9.116;2022-08-19T13:12:40;3.50;;;1.02;;
59970;SDS011;45825;45.434;9.116;2022-08-19T13:15:06;2.90;;;1.05;;
59970;SDS011;45825;45.434;9.116;2022-08-19T13:17:33;4.30;;;1.30;;
59970;SDS011;45825;45.434;9.116;2022-08-19T13:19:59;3.30;;;1.30;;
59970;SDS011;45825;45.434;9.116;2022-08-19T13:22:25;2.35;;;1.27;;
59970;SDS011;45825;45.434;9.116;2022-08-19T13:24:50;4.03;;;1.50;;
59970;SDS011;45825;45.434;9.116;2022-08-19T13:27:16;3.20;;;1.20;;
59970;SDS011;45825;45.434;9.116;2022-08-19T13:29:42;6.20;;;1.58;;
59970;SDS011;45825;45.434;9.116;2022-08-19T13:32:26;3.63;;;1.40;;
59970;SDS011;45825;45.434;9.116;2022-08-19T13:35:10;2.83;;;1.30;;
59970;SDS011;45825;45.434;9.116;2022-08-19T13:37:35;3.53;;;1.20;;
59970;SDS011;45825;45.434;9.116;2022-08-19T13:40:07;4.20;;;1.42;;
59970;SDS011;45825;45.434;9.116;2022-08-19T13:42:40;8.50;;;1.42;;
59970;SDS011;45825;45.434;9.116;2022-08-19T13:45:07;2.17;;;1.30;;
59970;SDS011;45825;45.434;9.116;2022-08-19T13:47:33;3.78;;;1.30;;
59970;SDS011;45825;45.434;9.116;2022-08-19T13:50:00;2.38;;;1.17;;
59970;SDS011;45825;45.434;9.116;2022-08-19T13:52:28;3.38;;;1.20;;
59970;SDS011;45825;45.434;9.116;2022-08-19T13:54:54;6.53;;;1.52;;
59970;SDS011;45825;45.434;9.116;2022-08-19T13:57:19;5.78;;;1.40;;
59970;SDS011;45825;45.434;9.116;2022-08-19T13:59:44;2.78;;;1.02;;
59970;SDS011;45825;45.434;9.116;2022-08-19T14:02:10;3.92;;;1.20;;
59970;SDS011;45825;45.434;9.116;2022-08-19T14:04:35;2.10;;;1.08;;
59970;SDS011;45825;45.434;9.116;2022-08-19T14:07:02;2.75;;;0.95;;
59970;SDS011;45825;45.434;9.116;2022-08-19T14:09:28;4.18;;;1.30;;
59970;SDS011;45825;45.434;9.116;2022-08-19T14:11:54;2.17;;;1.20;;
59970;SDS011;45825;45.434;9.116;2022-08-19T14:14:20;2.53;;;1.20;;
59970;SDS011;45825;45.434;9.116;2022-08-19T14:16:46;6.20;;;1.50;;
59970;SDS011;45825;45.434;9.116;2022-08-19T14:19:12;3.65;;;1.15;;
59970;SDS011;45825;45.434;9.116;2022-08-19T14:21:37;3.00;;;1.23;;
59970;SDS011;45825;45.434;9.116;2022-08-19T14:24:02;2.80;;;0.82;;
59970;SDS011;45825;45.434;9.116;2022-08-19T14:26:28;2.30;;;0.75;;
59970;SDS011;45825;45.434;9.116;2022-08-19T14:28:53;3.53;;;0.63;;
59970;SDS011;45825;45.434;9.116;2022-08-19T14:31:22;2.15;;;0.70;;
59970;SDS011;45825;45.434;9.116;2022-08-19T14:33:48;1.83;;;0.52;;
59970;SDS011;45825;45.434;9.116;2022-08-19T14:36:15;2.08;;;0.50;;
59970;SDS011;45825;45.434;9.116;2022-08-19T14:38:41;0.65;;;0.40;;
59970;SDS011;45825;45.434;9.116;2022-08-19T14:41:15;0.77;;;0.45;;
59970;SDS011;45825;45.434;9.116;2022-08-19T14:43:44;2.95;;;0.65;;
59970;SDS011;45825;45.434;9.116;2022-08-19T14:46:11;2.03;;;0.57;;
59970;SDS011;45825;45.434;9.116;2022-08-19T14:48:41;1.98;;;0.65;;
59970;SDS011;45825;45.434;9.116;2022-08-19T14:51:07;1.38;;;0.43;;
59970;SDS011;45825;45.434;9.116;2022-08-19T14:53:34;1.15;;;0.40;;
59970;SDS011;45825;45.434;9.116;2022-08-19T14:56:00;0.82;;;0.30;;
59970;SDS011;45825;45.434;9.116;2022-08-19T14:58:26;2.10;;;0.30;;
59970;SDS011;45825;45.434;9.116;2022-08-19T15:00:52;2.55;;;0.30;;
59970;SDS011;45825;45.434;9.116;2022-08-19T15:03:17;0.82;;;0.20;;
59970;SDS011;45825;45.434;9.116;2022-08-19T15:05:42;1.08;;;0.25;;